Time;durP1;ratioP1;P1;durP2;ratioP2;P2;SDS_P1;SDS_P2;PMS_P1;PMS_P2;Temp;Humidity;BMP_temperature;BMP_pressure;BME280_temperature;BME280_humidity;BME280_pressure;Samples;Min_cycle;Max_cycle;Signal;HPM_P1;HPM_P2
2022/05/31 00:02:49;;;;;;;7.15;3.63;;;;;;;8.52;76.99;101396.84;10625532;27;20031;-75
2022/05/31 00:07:49;;;;;;;12.90;4.95;;;;;;;8.48;77.74;101390.09;10607146;27;20038;-75
2022/05/31 00:12:50;;;;;;;5.88;2.35;;;;;;;8.49;77.73;101399.88;10606364;27;20031;-75
2022/05/31 00:17:50;;;;;;;4.97;3.85;;;;;;;8.47;78.01;101383.00;10624592;27;20064;-75
2022/05/31 00:22:52;;;;;;;4.22;3.83;;;;;;;8.45;78.16;101389.59;10606387;27;20361;-75
2022/05/31 00:27:52;;;;;;;4.25;3.85;;;;;;;8.48;78.37;101383.84;10607029;27;20031;-75
2022/05/31 00:32:53;;;;;;;8.05;3.45;;;;;;;8.50;78.78;101388.06;10606024;27;20038;-75
2022/05/31 00:37:54;;;;;;;9.45;3.72;;;;;;;8.51;78.70;101381.66;10624593;27;20114;-75
2022/05/31 00:43:08;;;;;;;3.58;3.35;;;;;;;8.47;78.74;101377.63;10606067;27;20384;-75
2022/05/31 00:48:24;;;;;;;11.18;4.28;;;;;;;8.47;79.08;101383.00;10624636;28;20039;-75
2022/05/31 00:53:28;;;;;;;7.07;3.65;;;;;;;8.44;79.15;101382.50;10606787;28;20034;-75
2022/05/31 00:58:30;;;;;;;5.88;4.15;;;;;;;8.40;79.44;101379.31;10588655;28;20069;-75
2022/05/31 01:03:30;;;;;;;10.43;4.95;;;;;;;8.38;79.66;101376.78;10605281;28;20429;-75
2022/05/31 01:08:32;;;;;;;6.70;4.32;;;;;;;8.43;79.92;101381.69;10623603;28;20031;-75
2022/05/31 01:13:32;;;;;;;4.18;3.78;;;;;;;8.43;79.86;101378.97;10623444;28;20035;-75
2022/05/31 01:18:32;;;;;;;4.63;4.07;;;;;;;8.44;79.95;101371.72;10605342;28;20038;-75
2022/05/31 01:23:37;;;;;;;13.35;6.07;;;;;;;8.38;79.47;101365.16;10604863;28;20120;-75
2022/05/31 01:28:43;;;;;;;7.80;4.07;;;;;;;8.28;79.67;101367.16;10594352;27;20399;-75
2022/05/31 01:33:48;;;;;;;13.95;4.22;;;;;;;8.16;79.60;101369.38;10631440;27;20110;-75
2022/05/31 01:38:58;;;;;;;5.75;4.18;;;;;;;8.06;79.73;101366.00;10596456;27;20032;-75
2022/05/31 01:43:58;;;;;;;8.30;4.75;;;;;;;8.00;79.86;101370.22;10613512;27;20063;-75
2022/05/31 01:48:59;;;;;;;5.55;5.05;;;;;;;7.97;80.30;101367.00;10612713;27;20068;-75
2022/05/31 01:54:00;;;;;;;10.82;5.13;;;;;;;7.91;80.32;101368.53;10612481;27;20042;-75
2022/05/31 01:59:00;;;;;;;8.40;7.55;;;;;;;7.92;80.75;101362.97;10630330;27;20059;-75
2022/05/31 02:04:01;;;;;;;7.85;6.70;;;;;;;7.95;80.97;101364.50;10595055;27;20516;-75
2022/05/31 02:09:02;;;;;;;7.60;6.22;;;;;;;8.00;81.86;101364.81;10611916;27;20113;-75
2022/05/31 02:14:03;;;;;;;9.85;6.32;;;;;;;7.99;81.39;101354.22;10641393;27;20023;-75
2022/05/31 02:19:18;;;;;;;8.88;7.20;;;;;;;8.00;82.43;101364.81;10610595;27;20076;-75
2022/05/31 02:24:19;;;;;;;14.77;8.90;;;;;;;7.99;81.79;101356.91;10615253;27;20368;-75
2022/05/31 02:29:25;;;;;;;8.30;7.50;;;;;;;7.99;81.82;101351.53;10594049;27;20039;-75
2022/05/31 02:34:28;;;;;;;11.95;7.38;;;;;;;7.99;81.59;101346.97;10611017;27;20486;-75
2022/05/31 02:39:29;;;;;;;8.60;7.72;;;;;;;7.98;81.67;101350.69;10610599;27;20019;-75
2022/05/31 02:44:29;;;;;;;9.00;7.50;;;;;;;7.97;81.90;101353.53;10628500;27;20060;-75
2022/05/31 02:49:30;;;;;;;9.70;8.50;;;;;;;7.99;82.49;101343.44;10629246;27;20126;-75
2022/05/31 02:54:30;;;;;;;10.60;7.63;;;;;;;7.97;82.32;101348.97;10609946;27;20042;-75
2022/05/31 02:59:31;;;;;;;10.02;8.98;;;;;;;7.97;82.69;101340.88;10628388;27;20089;-75
2022/05/31 03:04:31;;;;;;;11.02;9.60;;;;;;;7.99;82.50;101343.44;10609563;27;20039;-75
2022/05/31 03:09:32;;;;;;;16.35;9.95;;;;;;;7.98;82.43;101339.91;10609454;27;20109;-75
2022/05/31 03:14:43;;;;;;;11.23;9.48;;;;;;;8.01;82.80;101344.06;10608780;27;20027;-75
2022/05/31 03:19:52;;;;;;;11.30;10.20;;;;;;;8.06;82.87;101344.44;10609613;27;20077;-75
2022/05/31 03:24:59;;;;;;;12.30;11.07;;;;;;;8.11;83.12;101336.69;10626795;27;20027;-75
2022/05/31 03:30:00;;;;;;;13.57;11.02;;;;;;;8.14;83.32;101334.47;10608688;27;20027;-75
2022/05/31 03:35:00;;;;;;;17.35;10.90;;;;;;;8.20;84.00;101342.88;10626465;27;20391;-75
2022/05/31 03:40:01;;;;;;;13.27;10.63;;;;;;;8.30;84.81;101325.50;10608582;27;20035;-75
2022/05/31 03:45:01;;;;;;;15.85;11.20;;;;;;;8.35;84.05;101328.50;10630240;27;20027;-75
2022/05/31 03:50:01;;;;;;;16.13;10.18;;;;;;;8.37;83.79;101328.34;10638296;27;20039;-75
2022/05/31 03:55:03;;;;;;;14.00;10.55;;;;;;;8.41;84.54;101324.31;10640787;27;20039;-71
2022/05/31 04:00:04;;;;;;;13.15;11.18;;;;;;;8.43;84.39;101332.25;10630544;27;20184;-72
2022/05/31 04:05:06;;;;;;;12.65;9.70;;;;;;;8.46;84.48;101331.91;10625563;27;20122;-71
2022/05/31 04:10:07;;;;;;;12.95;9.75;;;;;;;8.50;84.73;101323.28;10625060;27;20031;-71
2022/05/31 04:15:08;;;;;;;14.95;10.63;;;;;;;8.53;84.50;101317.53;10589565;27;20037;-71
2022/05/31 04:20:09;;;;;;;18.15;11.35;;;;;;;8.59;85.16;101316.84;10624816;27;20368;-71
2022/05/31 04:25:09;;;;;;;17.55;12.00;;;;;;;8.65;85.73;101314.44;10624454;27;20035;-71
2022/05/31 04:30:10;;;;;;;12.07;10.88;;;;;;;8.72;86.38;101321.69;10624659;27;20061;-72
2022/05/31 04:35:10;;;;;;;13.25;11.00;;;;;;;8.77;86.34;101318.47;10605811;27;20041;-71
2022/05/31 04:40:11;;;;;;;11.85;10.05;;;;;;;8.81;86.04;101314.41;10624327;27;20028;-70
2022/05/31 04:45:11;;;;;;;16.83;13.13;;;;;;;8.91;86.84;101309.63;10623423;27;20429;-71
2022/05/31 04:50:12;;;;;;;11.23;9.90;;;;;;;9.08;88.10;101299.56;10605684;28;20399;-70
2022/05/31 04:55:12;;;;;;;13.93;11.32;;;;;;;9.19;90.54;101309.13;10588815;28;20521;-71
2022/05/31 05:00:13;;;;;;;12.02;9.48;;;;;;;9.34;89.92;101299.22;10626658;27;20055;-72
2022/05/31 05:05:13;;;;;;;16.40;9.70;;;;;;;9.45;91.65;101304.22;10641938;27;20537;-71
2022/05/31 05:10:14;;;;;;;17.25;11.30;;;;;;;9.59;93.42;101307.16;10620347;27;20038;-71
2022/05/31 05:15:14;;;;;;;16.23;10.57;;;;;;;9.75;92.93;101299.75;10632675;27;20039;-71
2022/05/31 05:20:15;;;;;;;19.25;10.85;;;;;;;9.90;91.60;101299.78;10632046;27;20085;-71
2022/05/31 05:25:15;;;;;;;10.50;9.43;;;;;;;10.09;91.45;101297.59;10631689;27;20035;-71
2022/05/31 05:35:35;;;;;;;11.68;10.40;;;;;;;10.24;94.74;101284.91;10615628;27;20035;-71
2022/05/31 05:40:35;;;;;;;13.88;10.38;;;;;;;10.59;94.16;101287.91;10631847;27;20043;-71
2022/05/31 05:45:36;;;;;;;15.88;9.98;;;;;;;10.83;92.56;101289.47;10630492;27;20045;-71
2022/05/31 05:50:36;;;;;;;11.88;9.45;;;;;;;12.19;92.86;101285.81;10630707;27;20527;-71
2022/05/31 05:55:37;;;;;;;10.95;8.48;;;;;;;13.95;89.82;101280.50;10612104;27;20039;-71
2022/05/31 06:00:41;;;;;;;11.18;7.80;;;;;;;15.48;88.02;101285.41;10586293;28;20044;-71
2022/05/31 06:05:41;;;;;;;8.07;7.28;;;;;;;15.46;86.61;101282.88;10586767;28;20069;-71
2022/05/31 06:10:45;;;;;;;8.60;7.05;;;;;;;14.80;84.59;101284.06;10586197;28;20042;-72
2022/05/31 06:15:54;;;;;;;12.73;6.85;;;;;;;14.29;83.02;101289.44;10585274;28;20032;-72
2022/05/31 06:20:56;;;;;;;12.05;6.35;;;;;;;14.29;83.13;101295.72;10586199;28;20032;-71
2022/05/31 06:25:57;;;;;;;13.57;5.70;;;;;;;13.92;83.02;101287.19;10585482;28;20492;-71
2022/05/31 06:30:57;;;;;;;11.88;7.47;;;;;;;13.59;82.96;101286.34;10585443;28;20028;-72
2022/05/31 06:35:59;;;;;;;6.90;5.80;;;;;;;13.93;82.78;101285.31;10586429;27;20430;-71
2022/05/31 06:40:59;;;;;;;6.38;5.82;;;;;;;15.42;81.23;101275.38;10586254;28;20385;-72
2022/05/31 06:46:10;;;;;;;6.35;5.75;;;;;;;16.91;80.11;101273.50;10585508;28;20036;-71
2022/05/31 06:51:11;;;;;;;10.20;4.90;;;;;;;17.88;78.06;101285.16;10585793;28;20028;-71
2022/05/31 07:01:37;;;;;;;11.25;5.45;;;;;;;17.82;75.75;101277.88;10612217;27;20034;-72
2022/05/31 07:06:37;;;;;;;6.68;4.70;;;;;;;17.94;73.03;101277.91;10627737;27;20083;-72
2022/05/31 07:11:38;;;;;;;8.70;6.25;;;;;;;18.86;72.06;101266.25;10627445;27;20046;-72
2022/05/31 07:16:38;;;;;;;6.93;5.38;;;;;;;19.76;68.06;101267.38;10608568;27;20046;-72
2022/05/31 07:21:39;;;;;;;6.32;5.75;;;;;;;20.55;61.56;101272.69;10626993;27;20107;-72
2022/05/31 07:26:39;;;;;;;8.70;5.25;;;;;;;20.62;56.96;101265.06;10625491;27;20031;-72
2022/05/31 07:31:41;;;;;;;5.50;4.90;;;;;;;21.74;61.92;101262.69;10626709;27;20068;-73
2022/05/31 07:36:42;;;;;;;8.38;5.43;;;;;;;22.83;59.98;101265.00;10608253;27;20027;-73
2022/05/31 07:41:43;;;;;;;5.13;4.72;;;;;;;23.44;55.61;101259.66;10626574;27;20030;-73
2022/05/31 07:46:43;;;;;;;5.97;5.07;;;;;;;23.73;56.48;101246.13;10608590;27;20476;-73
2022/05/31 07:51:44;;;;;;;6.18;4.28;;;;;;;24.00;57.85;101245.84;10628235;27;20073;-72
2022/05/31 07:56:44;;;;;;;5.30;4.40;;;;;;;24.25;46.33;101238.56;10630922;27;20055;-73
2022/05/31 08:01:44;;;;;;;5.00;3.88;;;;;;;24.44;50.89;101247.97;10630664;27;20142;-73
2022/05/31 08:06:45;;;;;;;6.72;4.22;;;;;;;24.80;55.79;101245.88;10626782;27;20027;-73
2022/05/31 08:11:45;;;;;;;8.00;4.40;;;;;;;24.75;40.83;101245.91;10624928;27;20035;-73
2022/05/31 08:16:45;;;;;;;5.88;3.83;;;;;;;23.98;41.59;101236.16;10625119;27;20035;-73
2022/05/31 08:21:47;;;;;;;3.33;3.10;;;;;;;24.82;45.61;101237.28;10624732;27;20056;-73
2022/05/31 08:26:47;;;;;;;5.43;4.05;;;;;;;25.08;43.11;101232.44;10624163;27;20775;-73
2022/05/31 08:31:47;;;;;;;4.53;3.28;;;;;;;25.11;38.45;101231.00;10606099;27;20031;-73
2022/05/31 08:36:48;;;;;;;4.40;4.00;;;;;;;25.62;42.07;101237.06;10623836;27;20038;-73
2022/05/31 08:41:50;;;;;;;3.50;3.22;;;;;;;25.50;40.38;101234.66;10623975;27;20035;-73
2022/05/31 08:46:59;;;;;;;11.45;4.03;;;;;;;25.75;36.83;101227.22;10605111;27;20483;-73
2022/05/31 08:52:04;;;;;;;8.50;3.83;;;;;;;26.47;35.25;101221.75;10623463;28;20035;-73
2022/05/31 08:57:07;;;;;;;5.65;3.22;;;;;;;25.03;34.33;101224.16;10581284;28;20071;-73
2022/05/31 09:02:21;;;;;;;4.72;2.53;;;;;;;22.33;36.73;101234.13;10588626;28;20136;-73
2022/05/31 09:07:32;;;;;;;5.88;2.97;;;;;;;23.32;35.41;101218.44;10588919;28;20031;-73
2022/05/31 09:12:41;;;;;;;2.83;2.63;;;;;;;23.52;36.11;101219.59;10605016;28;20103;-73
2022/05/31 09:17:58;;;;;;;2.45;2.22;;;;;;;23.66;36.35;101213.19;10623038;28;20464;-73
2022/05/31 09:22:59;;;;;;;7.45;2.78;;;;;;;23.68;35.94;101218.47;10607266;28;20041;-73
2022/05/31 09:28:00;;;;;;;2.40;2.20;;;;;;;22.90;41.30;101208.41;10588291;28;20031;-73
2022/05/31 09:33:06;;;;;;;1.98;1.88;;;;;;;22.10;41.37;101212.47;10605956;28;20051;-74
2022/05/31 09:38:10;;;;;;;2.67;2.47;;;;;;;21.48;38.32;101214.81;10623503;28;20388;-72
2022/05/31 09:43:21;;;;;;;2.55;2.42;;;;;;;23.55;39.59;101206.03;10624229;28;20045;-72
2022/05/31 09:48:22;;;;;;;3.03;2.83;;;;;;;25.79;37.67;101203.31;10591211;27;20035;-72
2022/05/31 09:58:42;;;;;;;1.45;1.35;;;;;;;26.65;35.00;101196.00;10614711;27;20067;-73
2022/05/31 10:03:45;;;;;;;3.95;2.53;;;;;;;26.09;27.28;101188.31;10611913;27;20027;-73
2022/05/31 10:08:49;;;;;;;2.33;2.13;;;;;;;26.49;27.17;101196.50;10594599;27;20035;-73
2022/05/31 10:14:00;;;;;;;7.03;2.90;;;;;;;24.70;28.60;101198.84;10578003;27;20065;-73
2022/05/31 10:19:05;;;;;;;5.88;2.05;;;;;;;22.22;34.73;101210.38;10594866;27;20030;-73
2022/05/31 10:24:16;;;;;;;4.32;3.90;;;;;;;21.43;37.06;101208.41;10577856;27;20031;-72
2022/05/31 10:29:24;;;;;;;3.05;2.75;;;;;;;20.65;39.34;101201.28;10610703;27;20106;-72
2022/05/31 10:34:36;;;;;;;15.95;3.72;;;;;;;20.05;38.79;101202.13;10576767;27;20056;-72
2022/05/31 10:39:38;;;;;;;4.70;2.10;;;;;;;20.18;39.03;101207.25;10628944;27;20023;-72
2022/05/31 10:44:50;;;;;;;12.10;3.55;;;;;;;20.42;38.22;101205.09;10594816;27;20027;-72
2022/05/31 10:49:50;;;;;;;3.60;3.00;;;;;;;21.71;36.60;101194.31;10614115;27;20031;-72
2022/05/31 10:55:12;;;;;;;2.55;2.35;;;;;;;23.28;32.78;101178.66;10611449;27;20039;-72
2022/05/31 11:00:36;;;;;;;4.70;3.50;;;;;;;24.02;36.67;101185.50;10627803;27;20066;-72
2022/05/31 11:05:42;;;;;;;2.10;2.00;;;;;;;22.80;38.92;101183.53;10592926;27;20031;-72
2022/05/31 11:16:37;;;;;;;6.20;2.83;;;;;;;20.71;40.86;101191.16;10612133;27;20058;-72
2022/05/31 11:21:54;;;;;;;3.65;2.58;;;;;;;20.47;40.67;101193.31;10627925;27;20434;-72
2022/05/31 11:27:16;;;;;;;5.15;3.10;;;;;;;19.84;39.94;101195.47;10608813;27;20451;-72
2022/05/31 11:32:44;;;;;;;3.13;2.33;;;;;;;19.81;39.36;101195.97;10609661;27;20043;-72
2022/05/31 11:37:53;;;;;;;3.25;2.80;;;;;;;19.51;39.71;101193.56;10608413;27;20027;-72
2022/05/31 11:42:54;;;;;;;5.25;2.63;;;;;;;19.14;42.65;101202.25;10625883;27;20426;-72
2022/05/31 11:48:22;;;;;;;6.38;3.28;;;;;;;18.86;41.94;101210.50;10607526;27;20087;-72
2022/05/31 11:53:26;;;;;;;10.40;2.95;;;;;;;18.63;43.92;101236.91;10609265;27;20056;-72
2022/05/31 11:58:38;;;;;;;5.22;2.63;;;;;;;18.09;45.01;101241.78;10625624;27;20051;-72
2022/05/31 12:04:07;;;;;;;4.05;3.05;;;;;;;16.89;49.76;101248.31;10629659;27;20349;-72
2022/05/31 12:09:29;;;;;;;2.08;1.95;;;;;;;16.54;51.67;101239.91;10614742;27;20080;-73
2022/05/31 12:14:30;;;;;;;5.97;2.70;;;;;;;16.70;54.48;101240.09;10596892;27;20055;-76
2022/05/31 12:19:39;;;;;;;15.15;2.97;;;;;;;16.83;58.59;101232.81;10607003;27;20384;-72
2022/05/31 12:24:46;;;;;;;3.45;2.65;;;;;;;17.39;60.62;101223.38;10606839;27;20023;-72
2022/05/31 12:30:14;;;;;;;2.92;2.63;;;;;;;18.97;64.73;101221.44;10573407;27;20027;-73
2022/05/31 12:35:29;;;;;;;3.28;2.97;;;;;;;19.44;69.08;101209.38;10582468;27;20506;-73
2022/05/31 12:40:33;;;;;;;13.18;3.92;;;;;;;18.83;66.61;101202.81;10625552;27;20031;-73
2022/05/31 12:45:33;;;;;;;3.80;3.38;;;;;;;18.60;69.69;101201.75;10605040;27;20040;-73
2022/05/31 12:50:50;;;;;;;4.83;3.73;;;;;;;18.08;66.25;101209.97;10624161;27;20031;-73
2022/05/31 12:55:56;;;;;;;3.78;3.25;;;;;;;17.77;73.08;101222.13;10623833;28;20380;-73
2022/05/31 13:01:04;;;;;;;4.35;3.53;;;;;;;17.49;71.73;101225.53;10605586;28;20043;-73
2022/05/31 13:07:04;;;;;;;2.58;2.38;;;;;;;17.16;68.60;101211.28;10623449;28;20150;-72
2022/05/31 13:23:07;;;;;;;5.50;3.55;;;;;;;20.50;70.05;101198.31;10628493;27;20039;-72
2022/05/31 13:28:08;;;;;;;3.45;3.15;;;;;;;21.53;65.60;101190.03;10631574;27;20031;-73
2022/05/31 13:33:14;;;;;;;3.80;3.50;;;;;;;22.58;66.55;101175.47;10614041;27;20052;-72
2022/05/31 13:38:23;;;;;;;4.13;3.17;;;;;;;22.12;65.82;101179.94;10634243;27;20540;-73
2022/05/31 13:43:28;;;;;;;3.65;3.38;;;;;;;21.10;67.46;101183.56;10619434;27;20023;-73
2022/05/31 13:48:37;;;;;;;4.17;3.30;;;;;;;21.61;66.27;101180.44;10613648;27;20176;-73
2022/05/31 13:53:42;;;;;;;3.42;2.92;;;;;;;22.29;64.86;101178.66;10595972;27;20571;-73
2022/05/31 13:58:43;;;;;;;3.70;3.03;;;;;;;22.98;72.48;101179.47;10612479;27;20434;-72
2022/05/31 14:03:43;;;;;;;3.42;3.08;;;;;;;23.85;69.57;101179.47;10611944;27;20027;-73
2022/05/31 14:08:56;;;;;;;6.20;3.88;;;;;;;23.24;72.06;101182.25;10594574;27;20372;-72
2022/05/31 14:14:01;;;;;;;3.38;3.17;;;;;;;22.13;72.47;101196.22;10612264;27;20084;-72
2022/05/31 14:19:03;;;;;;;5.53;4.30;;;;;;;21.61;71.65;101197.00;10628995;27;20028;-72
2022/05/31 14:24:04;;;;;;;4.15;3.25;;;;;;;21.77;68.63;101195.19;10577519;27;20376;-72
2022/05/31 14:29:26;;;;;;;4.88;3.95;;;;;;;21.92;67.45;101192.53;10610655;27;20027;-72
2022/05/31 14:34:36;;;;;;;6.38;4.40;;;;;;;21.85;71.11;101197.41;10629033;27;20026;-72
2022/05/31 14:39:50;;;;;;;7.43;4.70;;;;;;;21.36;69.69;101198.44;10595356;27;20659;-73
2022/05/31 14:44:52;;;;;;;6.18;4.35;;;;;;;21.32;71.37;101196.44;10610014;27;20031;-72
2022/05/31 14:50:05;;;;;;;2.88;2.67;;;;;;;21.43;67.03;101200.97;10593307;27;20027;-72
2022/05/31 14:55:11;;;;;;;5.07;4.38;;;;;;;22.12;68.07;101205.59;10628394;27;20038;-72
2022/05/31 15:00:12;;;;;;;4.67;4.23;;;;;;;22.14;71.51;101199.78;10593086;27;20047;-72
2022/05/31 15:05:16;;;;;;;5.28;4.20;;;;;;;22.43;72.70;101206.63;10627963;27;20336;-72
2022/05/31 15:10:31;;;;;;;6.80;4.47;;;;;;;22.51;70.51;101203.31;10593012;27;20043;-72
2022/05/31 15:20:50;;;;;;;7.68;6.15;;;;;;;21.47;72.02;101199.34;10627094;27;20480;-72
2022/05/31 15:25:52;;;;;;;3.67;3.22;;;;;;;21.06;71.43;101195.38;10608448;27;20031;-72
2022/05/31 15:30:52;;;;;;;8.30;4.57;;;;;;;20.59;72.86;101202.31;10591539;27;20406;-72
2022/05/31 15:35:53;;;;;;;3.42;3.13;;;;;;;20.00;79.19;101201.19;10608678;27;20071;-72
2022/05/31 15:40:53;;;;;;;5.38;3.90;;;;;;;19.57;76.52;101214.53;10626135;27;20058;-72
2022/05/31 15:45:54;;;;;;;23.52;11.38;;;;;;;19.08;78.35;101227.97;10624873;27;20019;-72
2022/05/31 15:50:58;;;;;;;6.57;4.85;;;;;;;18.64;76.50;101235.03;10590480;27;20174;-72
2022/05/31 15:55:58;;;;;;;8.85;5.88;;;;;;;18.39;75.23;101235.34;10608123;27;20035;-72
2022/05/31 16:00:59;;;;;;;7.25;6.40;;;;;;;18.31;74.28;101231.03;10607063;27;20051;-72
2022/05/31 16:05:59;;;;;;;6.55;5.55;;;;;;;18.54;75.91;101227.44;10607184;27;20031;-72
2022/05/31 16:11:00;;;;;;;8.60;5.22;;;;;;;18.65;75.26;101220.25;10590206;27;20023;-73
2022/05/31 16:16:01;;;;;;;4.05;3.70;;;;;;;18.47;74.82;101207.50;10629961;27;20100;-72
2022/05/31 16:21:04;;;;;;;6.57;5.85;;;;;;;18.22;74.91;101216.03;10611069;27;20027;-72
2022/05/31 16:26:04;;;;;;;5.20;4.63;;;;;;;18.22;74.55;101214.16;10577398;27;20027;-72
2022/05/31 16:31:05;;;;;;;12.70;4.03;;;;;;;18.03;75.54;101215.38;10615813;27;20034;-72
2022/05/31 16:36:27;;;;;;;3.47;2.70;;;;;;;17.87;75.65;101223.22;10611838;27;20046;-72
2022/05/31 16:41:29;;;;;;;6.85;4.07;;;;;;;17.77;74.79;101216.66;10591346;27;20034;-71
2022/05/31 16:46:29;;;;;;;18.40;6.60;;;;;;;17.78;75.72;101216.44;10623727;27;20379;-72
2022/05/31 16:51:35;;;;;;;5.53;3.67;;;;;;;17.82;75.49;101216.78;10571818;27;20034;-72
2022/05/31 16:56:40;;;;;;;8.23;5.67;;;;;;;17.77;74.84;101214.78;10623553;27;20122;-71
2022/05/31 17:01:40;;;;;;;5.88;2.67;;;;;;;17.84;74.87;101220.97;10588715;28;20038;-72
2022/05/31 17:17:19;;;;;;;7.20;3.55;;;;;;;17.99;74.73;101217.72;10623450;28;20079;-71
2022/05/31 17:22:19;;;;;;;7.82;3.72;;;;;;;17.84;73.44;101220.97;10624004;27;20058;-72
2022/05/31 17:27:20;;;;;;;6.45;3.17;;;;;;;17.60;75.70;101224.72;10604928;28;20448;-72
2022/05/31 17:32:20;;;;;;;6.82;3.83;;;;;;;17.36;76.22;101223.84;10605726;28;20475;-71
2022/05/31 17:37:21;;;;;;;3.83;3.05;;;;;;;16.91;79.86;101236.06;10604898;28;20063;-72
2022/05/31 17:42:22;;;;;;;3.78;3.47;;;;;;;16.68;78.19;101257.78;10623139;28;20471;-72
2022/05/31 17:47:23;;;;;;;4.28;2.75;;;;;;;15.96;79.40;101271.19;10622712;28;20039;-72
2022/05/31 17:58:38;;;;;;;3.78;3.47;;;;;;;14.62;78.18;101273.06;10409128;28;20041;-75
2022/05/31 18:09:29;;;;;;;8.43;4.00;;;;;;;14.30;86.05;101277.53;10548909;27;20055;-73
2022/05/31 18:27:19;;;;;;;5.68;4.20;;;;;;;13.85;87.71;101271.94;10538514;28;20027;-73
2022/05/31 18:38:31;;;;;;;6.20;3.60;;;;;;;13.95;82.84;101266.88;10323954;28;20057;-73
2022/05/31 18:44:07;;;;;;;9.32;4.80;;;;;;;13.91;82.31;101280.09;10539880;28;20051;-73
2022/05/31 18:49:07;;;;;;;6.20;4.25;;;;;;;13.72;82.86;101289.94;10536194;28;20447;-72
2022/05/31 18:54:13;;;;;;;9.00;2.47;;;;;;;13.68;82.85;101294.09;10545702;27;20039;-73
2022/05/31 18:59:17;;;;;;;4.50;3.53;;;;;;;13.64;82.87;101301.00;10611390;27;20557;-72
2022/05/31 19:04:17;;;;;;;2.58;2.40;;;;;;;13.58;84.63;101307.28;10593510;27;20031;-73
2022/05/31 19:09:19;;;;;;;3.63;3.30;;;;;;;13.48;84.50;101304.97;10627799;27;20027;-73
2022/05/31 19:14:26;;;;;;;3.38;2.42;;;;;;;13.37;83.92;101299.28;10628158;27;20031;-72
2022/05/31 19:19:27;;;;;;;4.57;3.28;;;;;;;13.21;87.89;101314.94;10604171;27;20043;-73
2022/05/31 19:24:28;;;;;;;4.45;2.63;;;;;;;13.18;87.58;101315.34;10605897;27;20403;-73
2022/05/31 19:29:39;;;;;;;;;;;;;;;;;;;;;
2022/05/31 19:34:52;;;;;;;3.00;2.80;;;;;;;13.18;87.29;101318.06;10631964;27;20031;-73
2022/05/31 19:40:20;;;;;;;6.18;5.55;;;;;;;13.08;92.80;101323.03;10629983;27;20027;-73
2022/05/31 19:45:21;;;;;;;11.55;6.97;;;;;;;12.90;95.59;101320.88;10622535;27;20091;-72
2022/05/31 19:50:22;;;;;;;8.05;7.28;;;;;;;12.68;97.65;101325.56;10589786;27;20107;-73
2022/05/31 19:55:27;;;;;;;7.93;7.15;;;;;;;12.47;97.79;101331.09;10608862;27;20499;-73
2022/05/31 20:00:28;;;;;;;15.88;9.20;;;;;;;12.43;97.17;101337.97;10580753;28;20496;-73
2022/05/31 20:05:29;;;;;;;8.40;7.50;;;;;;;12.36;97.44;101342.50;10582293;27;20120;-73
2022/05/31 20:10:30;;;;;;;8.02;7.15;;;;;;;12.24;100.00;101351.19;10620377;27;20031;-72
2022/05/31 20:15:49;;;;;;;9.15;8.27;;;;;;;12.34;96.41;101348.13;10603127;27;20172;-73
2022/05/31 20:21:09;;;;;;;9.75;7.55;;;;;;;12.39;94.21;101355.69;10574856;28;20055;-72
2022/05/31 20:26:10;;;;;;;8.65;7.03;;;;;;;12.33;100.00;101347.28;10585432;27;20476;-73
2022/05/31 20:31:56;;;;;;;11.23;8.02;;;;;;;12.34;99.44;101359.81;10596074;28;20019;-74
2022/05/31 20:49:02;;;;;;;12.18;8.55;;;;;;;12.22;100.00;101361.44;10526157;28;20027;-73
2022/05/31 20:54:06;;;;;;;7.88;6.70;;;;;;;12.26;100.00;101362.72;10579799;28;20038;-72
2022/05/31 21:24:07;;;;;;;9.40;7.93;;;;;;;12.44;100.00;101358.63;10197877;29;20040;-72
2022/05/31 21:35:08;;;;;;;;;;;;;;;12.55;99.51;101358.09;10602307;27;20058;-72
2022/05/31 21:52:33;;;;;;;7.65;6.15;;;;;;;12.57;96.02;101362.31;10619498;27;20084;-73
2022/05/31 21:57:42;;;;;;;6.13;5.57;;;;;;;12.52;96.38;101370.19;10628467;27;20516;-73
2022/05/31 22:02:49;;;;;;;9.88;5.65;;;;;;;12.43;95.89;101381.41;10614339;27;20045;-74
2022/05/31 22:07:50;;;;;;;9.35;6.10;;;;;;;12.23;99.95;101379.41;10624455;27;20043;-74
2022/05/31 22:13:09;;;;;;;22.85;5.78;;;;;;;12.02;100.00;101384.84;10629411;27;20038;-75
2022/05/31 22:24:22;;;;;;;;;;;;;;;;;;;;;
2022/05/31 22:48:31;;;;;;;5.25;1.77;;;;;;;10.99;100.00;101358.88;10539765;28;20028;-72
2022/05/31 22:54:12;;;;;;;;;;;;;;;;;;;;;
2022/05/31 23:06:02;;;;;;;2.60;2.40;;;;;;;10.91;100.00;101357.09;10430348;28;20582;-72
2022/05/31 23:28:47;;;;;;;6.50;4.63;;;;;;;10.81;100.00;101337.59;10485098;28;20024;-72
2022/05/31 23:33:59;;;;;;;8.25;3.42;;;;;;;10.71;100.00;101351.41;10540921;28;20032;-72
2022/05/31 23:51:21;;;;;;;3.70;3.40;;;;;;;10.77;100.00;101344.41;10371307;28;20034;-73
2022/05/31 23:56:21;;;;;;;3.22;2.70;;;;;;;10.61;100.00;101356.28;10328959;28;20124;-73
